sensor_id;sensor_type;location;lat;lon;timestamp;P1;durP1;ratioP1;P2;durP2;ratioP2
47219;SDS011;32961;51.936;4.788;2023-07-29T00:01:56;7.85;;;2.92;;
47219;SDS011;32961;51.936;4.788;2023-07-29T00:04:23;10.30;;;2.28;;
47219;SDS011;32961;51.936;4.788;2023-07-29T00:06:51;7.55;;;2.70;;
47219;SDS011;32961;51.936;4.788;2023-07-29T00:09:19;4.35;;;2.05;;
47219;SDS011;32961;51.936;4.788;2023-07-29T00:11:47;6.15;;;2.03;;
47219;SDS011;32961;51.936;4.788;2023-07-29T00:14:15;5.25;;;2.03;;
47219;SDS011;32961;51.936;4.788;2023-07-29T00:16:44;5.43;;;2.80;;
47219;SDS011;32961;51.936;4.788;2023-07-29T00:19:12;5.97;;;2.10;;
47219;SDS011;32961;51.936;4.788;2023-07-29T00:21:39;9.40;;;2.60;;
47219;SDS011;32961;51.936;4.788;2023-07-29T00:24:09;6.28;;;2.25;;
47219;SDS011;32961;51.936;4.788;2023-07-29T00:26:37;4.47;;;2.40;;
47219;SDS011;32961;51.936;4.788;2023-07-29T00:29:05;5.28;;;2.47;;
47219;SDS011;32961;51.936;4.788;2023-07-29T00:31:33;9.63;;;2.80;;
47219;SDS011;32961;51.936;4.788;2023-07-29T00:34:02;9.73;;;2.60;;
47219;SDS011;32961;51.936;4.788;2023-07-29T00:36:30;7.25;;;2.72;;
47219;SDS011;32961;51.936;4.788;2023-07-29T00:38:58;8.75;;;3.22;;
47219;SDS011;32961;51.936;4.788;2023-07-29T00:41:26;5.07;;;2.47;;
47219;SDS011;32961;51.936;4.788;2023-07-29T00:43:53;5.97;;;2.10;;
47219;SDS011;32961;51.936;4.788;2023-07-29T00:46:21;6.22;;;2.72;;
47219;SDS011;32961;51.936;4.788;2023-07-29T00:48:50;6.05;;;2.95;;
47219;SDS011;32961;51.936;4.788;2023-07-29T00:51:19;5.85;;;2.55;;
47219;SDS011;32961;51.936;4.788;2023-07-29T00:53:47;12.48;;;4.28;;
47219;SDS011;32961;51.936;4.788;2023-07-29T00:56:15;6.53;;;2.83;;
47219;SDS011;32961;51.936;4.788;2023-07-29T00:58:43;8.82;;;3.05;;
47219;SDS011;32961;51.936;4.788;2023-07-29T01:01:10;12.93;;;4.00;;
47219;SDS011;32961;51.936;4.788;2023-07-29T01:03:39;10.63;;;3.28;;
47219;SDS011;32961;51.936;4.788;2023-07-29T01:06:09;11.82;;;3.55;;
47219;SDS011;32961;51.936;4.788;2023-07-29T01:08:49;11.35;;;3.42;;
47219;SDS011;32961;51.936;4.788;2023-07-29T01:11:27;10.27;;;3.53;;
47219;SDS011;32961;51.936;4.788;2023-07-29T01:14:10;9.05;;;4.18;;
47219;SDS011;32961;51.936;4.788;2023-07-29T01:16:50;5.15;;;3.28;;
47219;SDS011;32961;51.936;4.788;2023-07-29T01:19:26;8.25;;;3.10;;
47219;SDS011;32961;51.936;4.788;2023-07-29T01:22:10;12.30;;;3.83;;
47219;SDS011;32961;51.936;4.788;2023-07-29T01:24:39;6.35;;;3.45;;
47219;SDS011;32961;51.936;4.788;2023-07-29T01:27:07;8.98;;;3.53;;
47219;SDS011;32961;51.936;4.788;2023-07-29T01:29:35;8.10;;;3.75;;
47219;SDS011;32961;51.936;4.788;2023-07-29T01:32:04;8.27;;;3.45;;
47219;SDS011;32961;51.936;4.788;2023-07-29T01:34:39;5.30;;;2.88;;
47219;SDS011;32961;51.936;4.788;2023-07-29T01:37:15;4.90;;;2.63;;
47219;SDS011;32961;51.936;4.788;2023-07-29T01:39:51;5.20;;;2.60;;
47219;SDS011;32961;51.936;4.788;2023-07-29T01:42:24;6.63;;;2.55;;
47219;SDS011;32961;51.936;4.788;2023-07-29T01:44:55;5.18;;;2.95;;
47219;SDS011;32961;51.936;4.788;2023-07-29T01:47:23;5.55;;;2.70;;
47219;SDS011;32961;51.936;4.788;2023-07-29T01:49:52;5.00;;;2.40;;
47219;SDS011;32961;51.936;4.788;2023-07-29T01:52:20;6.22;;;3.20;;
47219;SDS011;32961;51.936;4.788;2023-07-29T01:54:48;10.07;;;2.35;;
47219;SDS011;32961;51.936;4.788;2023-07-29T01:57:17;5.20;;;2.17;;
47219;SDS011;32961;51.936;4.788;2023-07-29T01:59:45;5.55;;;2.35;;
47219;SDS011;32961;51.936;4.788;2023-07-29T02:02:12;4.05;;;2.25;;
47219;SDS011;32961;51.936;4.788;2023-07-29T02:04:40;5.53;;;2.22;;
47219;SDS011;32961;51.936;4.788;2023-07-29T02:07:08;4.03;;;1.67;;
47219;SDS011;32961;51.936;4.788;2023-07-29T02:09:36;5.22;;;2.10;;
47219;SDS011;32961;51.936;4.788;2023-07-29T02:12:04;5.82;;;3.53;;
47219;SDS011;32961;51.936;4.788;2023-07-29T02:14:35;4.18;;;2.08;;
47219;SDS011;32961;51.936;4.788;2023-07-29T02:17:03;4.97;;;2.03;;
47219;SDS011;32961;51.936;4.788;2023-07-29T02:19:31;7.72;;;2.25;;
47219;SDS011;32961;51.936;4.788;2023-07-29T02:21:59;6.30;;;2.67;;
47219;SDS011;32961;51.936;4.788;2023-07-29T02:24:26;3.33;;;2.20;;
47219;SDS011;32961;51.936;4.788;2023-07-29T02:26:54;4.53;;;1.95;;
47219;SDS011;32961;51.936;4.788;2023-07-29T02:29:22;4.57;;;2.05;;
47219;SDS011;32961;51.936;4.788;2023-07-29T02:31:52;10.63;;;2.15;;
47219;SDS011;32961;51.936;4.788;2023-07-29T02:34:20;3.97;;;1.77;;
47219;SDS011;32961;51.936;4.788;2023-07-29T02:36:48;4.43;;;1.95;;
47219;SDS011;32961;51.936;4.788;2023-07-29T02:39:16;3.80;;;2.35;;
47219;SDS011;32961;51.936;4.788;2023-07-29T02:41:44;5.05;;;2.08;;
47219;SDS011;32961;51.936;4.788;2023-07-29T02:44:12;3.33;;;2.42;;
47219;SDS011;32961;51.936;4.788;2023-07-29T02:46:40;5.20;;;2.10;;
47219;SDS011;32961;51.936;4.788;2023-07-29T02:49:09;3.42;;;2.22;;
47219;SDS011;32961;51.936;4.788;2023-07-29T02:51:37;5.40;;;2.10;;
47219;SDS011;32961;51.936;4.788;2023-07-29T02:54:05;4.40;;;1.92;;
47219;SDS011;32961;51.936;4.788;2023-07-29T02:56:33;4.43;;;2.33;;
47219;SDS011;32961;51.936;4.788;2023-07-29T02:59:01;3.72;;;2.10;;
47219;SDS011;32961;51.936;4.788;2023-07-29T03:01:29;4.15;;;2.80;;
47219;SDS011;32961;51.936;4.788;2023-07-29T03:03:57;2.90;;;1.98;;
47219;SDS011;32961;51.936;4.788;2023-07-29T03:06:26;4.43;;;3.22;;
47219;SDS011;32961;51.936;4.788;2023-07-29T03:08:54;2.75;;;2.20;;
47219;SDS011;32961;51.936;4.788;2023-07-29T03:11:22;6.03;;;2.30;;
47219;SDS011;32961;51.936;4.788;2023-07-29T03:13:50;8.00;;;2.80;;
47219;SDS011;32961;51.936;4.788;2023-07-29T03:16:18;5.80;;;3.35;;
47219;SDS011;32961;51.936;4.788;2023-07-29T03:18:46;3.75;;;2.30;;
47219;SDS011;32961;51.936;4.788;2023-07-29T03:21:15;4.30;;;2.67;;
47219;SDS011;32961;51.936;4.788;2023-07-29T03:23:44;3.45;;;2.40;;
47219;SDS011;32961;51.936;4.788;2023-07-29T03:26:12;4.22;;;2.42;;
47219;SDS011;32961;51.936;4.788;2023-07-29T03:28:41;7.13;;;2.15;;
47219;SDS011;32961;51.936;4.788;2023-07-29T03:31:10;3.42;;;2.35;;
47219;SDS011;32961;51.936;4.788;2023-07-29T03:33:38;2.75;;;1.98;;
47219;SDS011;32961;51.936;4.788;2023-07-29T03:36:06;7.43;;;2.22;;
47219;SDS011;32961;51.936;4.788;2023-07-29T03:38:35;3.72;;;2.00;;
47219;SDS011;32961;51.936;4.788;2023-07-29T03:41:08;3.25;;;2.35;;
47219;SDS011;32961;51.936;4.788;2023-07-29T03:43:36;4.65;;;2.20;;
47219;SDS011;32961;51.936;4.788;2023-07-29T03:46:04;8.10;;;2.08;;
47219;SDS011;32961;51.936;4.788;2023-07-29T03:48:37;4.13;;;2.13;;
47219;SDS011;32961;51.936;4.788;2023-07-29T03:51:05;4.07;;;2.30;;
47219;SDS011;32961;51.936;4.788;2023-07-29T03:53:33;3.17;;;2.05;;
47219;SDS011;32961;51.936;4.788;2023-07-29T03:56:01;7.80;;;2.90;;
47219;SDS011;32961;51.936;4.788;2023-07-29T03:58:30;6.38;;;2.97;;
47219;SDS011;32961;51.936;4.788;2023-07-29T04:00:58;4.30;;;2.50;;
47219;SDS011;32961;51.936;4.788;2023-07-29T04:03:26;7.35;;;2.70;;
47219;SDS011;32961;51.936;4.788;2023-07-29T04:05:54;5.75;;;2.67;;
47219;SDS011;32961;51.936;4.788;2023-07-29T04:08:22;4.25;;;3.05;;
47219;SDS011;32961;51.936;4.788;2023-07-29T04:10:50;5.30;;;2.65;;
47219;SDS011;32961;51.936;4.788;2023-07-29T04:13:18;8.43;;;2.80;;
47219;SDS011;32961;51.936;4.788;2023-07-29T04:15:47;7.95;;;2.90;;
47219;SDS011;32961;51.936;4.788;2023-07-29T04:18:15;6.20;;;2.58;;
47219;SDS011;32961;51.936;4.788;2023-07-29T04:20:43;6.45;;;2.72;;
47219;SDS011;32961;51.936;4.788;2023-07-29T04:23:11;5.20;;;2.72;;
47219;SDS011;32961;51.936;4.788;2023-07-29T04:25:39;9.27;;;4.50;;
47219;SDS011;32961;51.936;4.788;2023-07-29T04:28:06;8.07;;;4.30;;
47219;SDS011;32961;51.936;4.788;2023-07-29T04:30:34;7.47;;;3.03;;
47219;SDS011;32961;51.936;4.788;2023-07-29T04:33:04;10.48;;;2.97;;
47219;SDS011;32961;51.936;4.788;2023-07-29T04:35:32;4.32;;;3.03;;
47219;SDS011;32961;51.936;4.788;2023-07-29T04:37:59;5.40;;;3.08;;
47219;SDS011;32961;51.936;4.788;2023-07-29T04:40:27;5.43;;;3.22;;
47219;SDS011;32961;51.936;4.788;2023-07-29T04:42:55;6.95;;;3.33;;
47219;SDS011;32961;51.936;4.788;2023-07-29T04:45:23;5.55;;;3.45;;
47219;SDS011;32961;51.936;4.788;2023-07-29T04:47:55;7.65;;;3.60;;
47219;SDS011;32961;51.936;4.788;2023-07-29T04:50:24;7.60;;;4.18;;
47219;SDS011;32961;51.936;4.788;2023-07-29T04:52:52;7.72;;;3.55;;
47219;SDS011;32961;51.936;4.788;2023-07-29T04:55:20;7.82;;;3.80;;
47219;SDS011;32961;51.936;4.788;2023-07-29T04:57:48;5.70;;;3.63;;
47219;SDS011;32961;51.936;4.788;2023-07-29T05:00:16;6.85;;;3.75;;
47219;SDS011;32961;51.936;4.788;2023-07-29T05:02:44;6.63;;;3.42;;
47219;SDS011;32961;51.936;4.788;2023-07-29T05:05:12;8.43;;;4.55;;
47219;SDS011;32961;51.936;4.788;2023-07-29T05:07:42;9.45;;;3.60;;
47219;SDS011;32961;51.936;4.788;2023-07-29T05:10:09;9.18;;;3.55;;
47219;SDS011;32961;51.936;4.788;2023-07-29T05:12:37;7.82;;;4.25;;
47219;SDS011;32961;51.936;4.788;2023-07-29T05:15:06;6.78;;;3.88;;
47219;SDS011;32961;51.936;4.788;2023-07-29T05:17:34;8.35;;;3.92;;
47219;SDS011;32961;51.936;4.788;2023-07-29T05:20:02;7.65;;;4.22;;
47219;SDS011;32961;51.936;4.788;2023-07-29T05:22:31;7.88;;;4.47;;
47219;SDS011;32961;51.936;4.788;2023-07-29T05:25:00;10.32;;;4.32;;
47219;SDS011;32961;51.936;4.788;2023-07-29T05:27:28;8.43;;;4.28;;
47219;SDS011;32961;51.936;4.788;2023-07-29T05:29:56;8.40;;;4.18;;
47219;SDS011;32961;51.936;4.788;2023-07-29T05:32:24;8.20;;;4.30;;
47219;SDS011;32961;51.936;4.788;2023-07-29T05:34:52;6.88;;;4.25;;
47219;SDS011;32961;51.936;4.788;2023-07-29T05:37:20;6.82;;;3.67;;
47219;SDS011;32961;51.936;4.788;2023-07-29T05:39:47;6.28;;;4.10;;
47219;SDS011;32961;51.936;4.788;2023-07-29T05:42:17;8.07;;;4.45;;
47219;SDS011;32961;51.936;4.788;2023-07-29T05:44:44;7.60;;;3.63;;
47219;SDS011;32961;51.936;4.788;2023-07-29T05:47:12;9.45;;;4.40;;
47219;SDS011;32961;51.936;4.788;2023-07-29T05:49:40;7.93;;;3.97;;
47219;SDS011;32961;51.936;4.788;2023-07-29T05:52:08;6.43;;;4.00;;
47219;SDS011;32961;51.936;4.788;2023-07-29T05:54:36;6.68;;;3.88;;
47219;SDS011;32961;51.936;4.788;2023-07-29T05:57:04;7.70;;;4.15;;
47219;SDS011;32961;51.936;4.788;2023-07-29T05:59:34;7.90;;;3.60;;
47219;SDS011;32961;51.936;4.788;2023-07-29T06:02:02;8.05;;;3.92;;
47219;SDS011;32961;51.936;4.788;2023-07-29T06:04:31;7.45;;;4.50;;
47219;SDS011;32961;51.936;4.788;2023-07-29T06:06:59;9.48;;;4.10;;
47219;SDS011;32961;51.936;4.788;2023-07-29T06:09:27;7.40;;;4.13;;
47219;SDS011;32961;51.936;4.788;2023-07-29T06:11:55;7.70;;;4.03;;
47219;SDS011;32961;51.936;4.788;2023-07-29T06:14:23;9.93;;;4.10;;
47219;SDS011;32961;51.936;4.788;2023-07-29T06:16:52;7.47;;;3.70;;
47219;SDS011;32961;51.936;4.788;2023-07-29T06:19:20;9.40;;;4.15;;
47219;SDS011;32961;51.936;4.788;2023-07-29T06:21:48;7.13;;;4.03;;
47219;SDS011;32961;51.936;4.788;2023-07-29T06:24:16;7.80;;;4.00;;
47219;SDS011;32961;51.936;4.788;2023-07-29T06:26:44;6.20;;;3.50;;
47219;SDS011;32961;51.936;4.788;2023-07-29T06:29:11;8.38;;;3.83;;
47219;SDS011;32961;51.936;4.788;2023-07-29T06:31:39;6.28;;;3.58;;
47219;SDS011;32961;51.936;4.788;2023-07-29T06:34:08;10.40;;;3.92;;
47219;SDS011;32961;51.936;4.788;2023-07-29T06:36:36;9.07;;;4.25;;
47219;SDS011;32961;51.936;4.788;2023-07-29T06:39:05;7.78;;;3.72;;
47219;SDS011;32961;51.936;4.788;2023-07-29T06:41:32;8.07;;;4.13;;
47219;SDS011;32961;51.936;4.788;2023-07-29T06:44:00;6.60;;;4.78;;
47219;SDS011;32961;51.936;4.788;2023-07-29T06:46:28;14.60;;;6.07;;
47219;SDS011;32961;51.936;4.788;2023-07-29T06:48:56;7.38;;;5.07;;
47219;SDS011;32961;51.936;4.788;2023-07-29T06:51:25;6.47;;;2.97;;
47219;SDS011;32961;51.936;4.788;2023-07-29T06:53:53;5.07;;;2.95;;
47219;SDS011;32961;51.936;4.788;2023-07-29T06:56:20;6.53;;;3.08;;
47219;SDS011;32961;51.936;4.788;2023-07-29T06:58:48;5.45;;;3.45;;
47219;SDS011;32961;51.936;4.788;2023-07-29T07:01:16;5.45;;;2.75;;
47219;SDS011;32961;51.936;4.788;2023-07-29T07:03:44;9.52;;;3.72;;
47219;SDS011;32961;51.936;4.788;2023-07-29T07:06:12;10.38;;;4.00;;
47219;SDS011;32961;51.936;4.788;2023-07-29T07:08:41;8.27;;;3.40;;
47219;SDS011;32961;51.936;4.788;2023-07-29T07:11:10;6.30;;;2.33;;
47219;SDS011;32961;51.936;4.788;2023-07-29T07:13:38;9.05;;;2.72;;
47219;SDS011;32961;51.936;4.788;2023-07-29T07:16:05;6.32;;;2.65;;
47219;SDS011;32961;51.936;4.788;2023-07-29T07:18:33;5.28;;;2.53;;
47219;SDS011;32961;51.936;4.788;2023-07-29T07:21:01;5.15;;;2.50;;
47219;SDS011;32961;51.936;4.788;2023-07-29T07:23:31;4.75;;;2.58;;
47219;SDS011;32961;51.936;4.788;2023-07-29T07:26:00;7.78;;;3.80;;
47219;SDS011;32961;51.936;4.788;2023-07-29T07:28:29;5.05;;;2.85;;
47219;SDS011;32961;51.936;4.788;2023-07-29T07:30:57;6.25;;;2.30;;
47219;SDS011;32961;51.936;4.788;2023-07-29T07:33:25;6.72;;;2.55;;
47219;SDS011;32961;51.936;4.788;2023-07-29T07:35:53;4.47;;;2.15;;
47219;SDS011;32961;51.936;4.788;2023-07-29T07:38:21;5.90;;;2.22;;
47219;SDS011;32961;51.936;4.788;2023-07-29T07:40:52;7.10;;;4.28;;
47219;SDS011;32961;51.936;4.788;2023-07-29T07:43:22;5.40;;;2.47;;
47219;SDS011;32961;51.936;4.788;2023-07-29T07:45:51;3.40;;;2.20;;
47219;SDS011;32961;51.936;4.788;2023-07-29T07:48:19;4.40;;;1.90;;
47219;SDS011;32961;51.936;4.788;2023-07-29T07:50:46;5.25;;;2.40;;
47219;SDS011;32961;51.936;4.788;2023-07-29T07:53:14;7.15;;;2.85;;
47219;SDS011;32961;51.936;4.788;2023-07-29T07:55:42;8.27;;;2.90;;
47219;SDS011;32961;51.936;4.788;2023-07-29T07:58:10;6.43;;;2.88;;
47219;SDS011;32961;51.936;4.788;2023-07-29T08:00:39;7.05;;;3.25;;
47219;SDS011;32961;51.936;4.788;2023-07-29T08:03:07;5.60;;;3.58;;
47219;SDS011;32961;51.936;4.788;2023-07-29T08:05:35;6.43;;;3.67;;
47219;SDS011;32961;51.936;4.788;2023-07-29T08:08:03;5.45;;;3.25;;
47219;SDS011;32961;51.936;4.788;2023-07-29T08:10:31;5.78;;;2.92;;
47219;SDS011;32961;51.936;4.788;2023-07-29T08:12:58;6.72;;;2.60;;
47219;SDS011;32961;51.936;4.788;2023-07-29T08:15:26;4.15;;;2.33;;
47219;SDS011;32961;51.936;4.788;2023-07-29T08:17:58;5.95;;;2.95;;
47219;SDS011;32961;51.936;4.788;2023-07-29T08:20:26;3.83;;;2.40;;
47219;SDS011;32961;51.936;4.788;2023-07-29T08:22:53;5.18;;;2.63;;
47219;SDS011;32961;51.936;4.788;2023-07-29T08:25:21;4.05;;;2.10;;
47219;SDS011;32961;51.936;4.788;2023-07-29T08:27:49;8.60;;;2.45;;
47219;SDS011;32961;51.936;4.788;2023-07-29T08:30:19;5.90;;;2.33;;
47219;SDS011;32961;51.936;4.788;2023-07-29T08:32:47;5.88;;;2.22;;
47219;SDS011;32961;51.936;4.788;2023-07-29T08:35:16;5.10;;;2.45;;
47219;SDS011;32961;51.936;4.788;2023-07-29T08:37:44;5.53;;;2.33;;
47219;SDS011;32961;51.936;4.788;2023-07-29T08:40:12;6.43;;;2.30;;
47219;SDS011;32961;51.936;4.788;2023-07-29T08:42:40;3.60;;;2.28;;
47219;SDS011;32961;51.936;4.788;2023-07-29T08:45:12;5.63;;;2.00;;
47219;SDS011;32961;51.936;4.788;2023-07-29T08:47:41;2.97;;;2.08;;
47219;SDS011;32961;51.936;4.788;2023-07-29T08:50:09;3.15;;;2.10;;
47219;SDS011;32961;51.936;4.788;2023-07-29T08:52:42;4.38;;;2.13;;
47219;SDS011;32961;51.936;4.788;2023-07-29T08:55:12;3.90;;;2.20;;
47219;SDS011;32961;51.936;4.788;2023-07-29T08:57:40;3.65;;;1.98;;
47219;SDS011;32961;51.936;4.788;2023-07-29T09:00:08;4.38;;;1.95;;
47219;SDS011;32961;51.936;4.788;2023-07-29T09:02:37;5.30;;;1.98;;
47219;SDS011;32961;51.936;4.788;2023-07-29T09:05:05;2.05;;;1.33;;
47219;SDS011;32961;51.936;4.788;2023-07-29T09:07:34;4.15;;;1.50;;
47219;SDS011;32961;51.936;4.788;2023-07-29T09:10:08;1.85;;;1.23;;
47219;SDS011;32961;51.936;4.788;2023-07-29T09:12:36;2.80;;;1.90;;
47219;SDS011;32961;51.936;4.788;2023-07-29T09:15:05;3.33;;;2.10;;
47219;SDS011;32961;51.936;4.788;2023-07-29T09:17:33;2.60;;;1.90;;
47219;SDS011;32961;51.936;4.788;2023-07-29T09:20:01;2.90;;;1.80;;
47219;SDS011;32961;51.936;4.788;2023-07-29T09:22:31;3.80;;;1.88;;
47219;SDS011;32961;51.936;4.788;2023-07-29T09:24:59;5.70;;;1.85;;
47219;SDS011;32961;51.936;4.788;2023-07-29T09:27:28;2.30;;;1.67;;
47219;SDS011;32961;51.936;4.788;2023-07-29T09:29:58;2.88;;;1.88;;
47219;SDS011;32961;51.936;4.788;2023-07-29T09:32:29;2.72;;;1.80;;
47219;SDS011;32961;51.936;4.788;2023-07-29T09:34:57;2.50;;;1.70;;
47219;SDS011;32961;51.936;4.788;2023-07-29T09:37:25;4.95;;;1.85;;
47219;SDS011;32961;51.936;4.788;2023-07-29T09:39:53;3.72;;;1.83;;
47219;SDS011;32961;51.936;4.788;2023-07-29T09:42:21;3.75;;;1.70;;
47219;SDS011;32961;51.936;4.788;2023-07-29T09:44:51;1.90;;;1.50;;
47219;SDS011;32961;51.936;4.788;2023-07-29T09:47:20;3.83;;;1.85;;
47219;SDS011;32961;51.936;4.788;2023-07-29T09:49:48;3.67;;;1.70;;
47219;SDS011;32961;51.936;4.788;2023-07-29T09:52:16;3.50;;;1.50;;
47219;SDS011;32961;51.936;4.788;2023-07-29T09:54:45;2.00;;;1.50;;
47219;SDS011;32961;51.936;4.788;2023-07-29T09:57:14;3.88;;;1.88;;
47219;SDS011;32961;51.936;4.788;2023-07-29T09:59:43;2.60;;;1.77;;
47219;SDS011;32961;51.936;4.788;2023-07-29T10:02:22;2.80;;;1.73;;
47219;SDS011;32961;51.936;4.788;2023-07-29T10:04:54;3.22;;;1.98;;
47219;SDS011;32961;51.936;4.788;2023-07-29T10:07:26;4.68;;;2.00;;
47219;SDS011;32961;51.936;4.788;2023-07-29T10:09:54;4.25;;;1.70;;
47219;SDS011;32961;51.936;4.788;2023-07-29T10:12:23;4.00;;;1.40;;
47219;SDS011;32961;51.936;4.788;2023-07-29T10:14:52;2.85;;;1.30;;
47219;SDS011;32961;51.936;4.788;2023-07-29T10:17:22;1.13;;;0.88;;
47219;SDS011;32961;51.936;4.788;2023-07-29T10:19:51;1.77;;;0.82;;
47219;SDS011;32961;51.936;4.788;2023-07-29T10:22:20;1.25;;;0.80;;
47219;SDS011;32961;51.936;4.788;2023-07-29T10:24:49;2.20;;;0.88;;
47219;SDS011;32961;51.936;4.788;2023-07-29T10:27:18;1.33;;;1.00;;
47219;SDS011;32961;51.936;4.788;2023-07-29T10:29:47;1.27;;;0.77;;
47219;SDS011;32961;51.936;4.788;2023-07-29T10:32:16;1.92;;;1.20;;
47219;SDS011;32961;51.936;4.788;2023-07-29T10:34:45;3.00;;;0.93;;
47219;SDS011;32961;51.936;4.788;2023-07-29T10:37:13;4.55;;;1.10;;
47219;SDS011;32961;51.936;4.788;2023-07-29T10:39:45;4.53;;;1.00;;
47219;SDS011;32961;51.936;4.788;2023-07-29T10:42:19;4.32;;;1.20;;
47219;SDS011;32961;51.936;4.788;2023-07-29T10:44:50;2.28;;;1.30;;
47219;SDS011;32961;51.936;4.788;2023-07-29T10:47:20;2.65;;;1.42;;
47219;SDS011;32961;51.936;4.788;2023-07-29T10:49:51;7.05;;;2.05;;
47219;SDS011;32961;51.936;4.788;2023-07-29T10:52:30;4.72;;;1.92;;
47219;SDS011;32961;51.936;4.788;2023-07-29T10:55:23;7.35;;;1.52;;
47219;SDS011;32961;51.936;4.788;2023-07-29T10:57:53;3.90;;;1.40;;
47219;SDS011;32961;51.936;4.788;2023-07-29T11:00:32;3.65;;;1.88;;
47219;SDS011;32961;51.936;4.788;2023-07-29T11:03:01;3.90;;;1.73;;
47219;SDS011;32961;51.936;4.788;2023-07-29T11:05:44;5.38;;;1.83;;
47219;SDS011;32961;51.936;4.788;2023-07-29T11:10:57;6.50;;;4.05;;
47219;SDS011;32961;51.936;4.788;2023-07-29T11:13:26;3.78;;;2.00;;
47219;SDS011;32961;51.936;4.788;2023-07-29T11:15:55;1.85;;;1.75;;
47219;SDS011;32961;51.936;4.788;2023-07-29T11:18:26;2.63;;;1.60;;
47219;SDS011;32961;51.936;4.788;2023-07-29T11:20:57;3.90;;;1.73;;
47219;SDS011;32961;51.936;4.788;2023-07-29T11:23:29;2.75;;;1.88;;
47219;SDS011;32961;51.936;4.788;2023-07-29T11:25:58;2.80;;;1.73;;
47219;SDS011;32961;51.936;4.788;2023-07-29T11:28:26;3.28;;;1.70;;
47219;SDS011;32961;51.936;4.788;2023-07-29T11:30:55;4.22;;;2.53;;
47219;SDS011;32961;51.936;4.788;2023-07-29T11:33:24;3.95;;;1.98;;
47219;SDS011;32961;51.936;4.788;2023-07-29T11:35:54;6.45;;;5.15;;
47219;SDS011;32961;51.936;4.788;2023-07-29T11:38:24;3.78;;;2.00;;
47219;SDS011;32961;51.936;4.788;2023-07-29T11:40:54;4.90;;;1.60;;
47219;SDS011;32961;51.936;4.788;2023-07-29T11:43:23;4.13;;;1.95;;
47219;SDS011;32961;51.936;4.788;2023-07-29T11:45:51;3.15;;;2.03;;
47219;SDS011;32961;51.936;4.788;2023-07-29T11:48:26;5.13;;;3.83;;
47219;SDS011;32961;51.936;4.788;2023-07-29T11:50:54;5.97;;;2.05;;
47219;SDS011;32961;51.936;4.788;2023-07-29T11:53:23;2.55;;;1.60;;
47219;SDS011;32961;51.936;4.788;2023-07-29T11:55:55;3.22;;;1.60;;
47219;SDS011;32961;51.936;4.788;2023-07-29T11:58:23;2.00;;;1.70;;
47219;SDS011;32961;51.936;4.788;2023-07-29T12:00:51;3.90;;;1.83;;
47219;SDS011;32961;51.936;4.788;2023-07-29T12:03:19;3.40;;;1.63;;
47219;SDS011;32961;51.936;4.788;2023-07-29T12:05:48;2.53;;;1.60;;
47219;SDS011;32961;51.936;4.788;2023-07-29T12:08:16;2.28;;;1.92;;
47219;SDS011;32961;51.936;4.788;2023-07-29T12:10:46;2.40;;;1.48;;
47219;SDS011;32961;51.936;4.788;2023-07-29T12:13:14;2.25;;;1.58;;
47219;SDS011;32961;51.936;4.788;2023-07-29T12:15:42;2.65;;;1.50;;
47219;SDS011;32961;51.936;4.788;2023-07-29T12:18:10;2.40;;;1.50;;
47219;SDS011;32961;51.936;4.788;2023-07-29T12:20:39;4.63;;;1.70;;
47219;SDS011;32961;51.936;4.788;2023-07-29T12:23:07;3.22;;;1.48;;
47219;SDS011;32961;51.936;4.788;2023-07-29T12:25:35;3.35;;;1.40;;
47219;SDS011;32961;51.936;4.788;2023-07-29T12:28:05;4.15;;;1.90;;
47219;SDS011;32961;51.936;4.788;2023-07-29T12:30:34;7.82;;;1.73;;
47219;SDS011;32961;51.936;4.788;2023-07-29T12:33:08;3.53;;;1.63;;
47219;SDS011;32961;51.936;4.788;2023-07-29T12:35:36;4.80;;;1.40;;
47219;SDS011;32961;51.936;4.788;2023-07-29T12:38:04;3.03;;;1.27;;
47219;SDS011;32961;51.936;4.788;2023-07-29T12:40:37;1.77;;;1.48;;
47219;SDS011;32961;51.936;4.788;2023-07-29T12:43:07;5.10;;;1.50;;
47219;SDS011;32961;51.936;4.788;2023-07-29T12:45:35;3.08;;;1.58;;
47219;SDS011;32961;51.936;4.788;2023-07-29T12:48:06;1.67;;;1.30;;
47219;SDS011;32961;51.936;4.788;2023-07-29T12:50:34;3.25;;;1.55;;
47219;SDS011;32961;51.936;4.788;2023-07-29T12:53:02;1.52;;;1.33;;
47219;SDS011;32961;51.936;4.788;2023-07-29T12:55:30;5.60;;;1.75;;
47219;SDS011;32961;51.936;4.788;2023-07-29T12:57:57;3.60;;;1.40;;
47219;SDS011;32961;51.936;4.788;2023-07-29T13:00:27;2.47;;;1.80;;
47219;SDS011;32961;51.936;4.788;2023-07-29T13:02:55;1.30;;;1.20;;
47219;SDS011;32961;51.936;4.788;2023-07-29T13:05:23;2.20;;;1.50;;
47219;SDS011;32961;51.936;4.788;2023-07-29T13:07:51;2.97;;;1.70;;
47219;SDS011;32961;51.936;4.788;2023-07-29T13:10:18;4.15;;;1.50;;
47219;SDS011;32961;51.936;4.788;2023-07-29T13:12:46;2.58;;;1.60;;
47219;SDS011;32961;51.936;4.788;2023-07-29T13:15:15;7.03;;;1.58;;
47219;SDS011;32961;51.936;4.788;2023-07-29T13:17:44;4.13;;;1.35;;
47219;SDS011;32961;51.936;4.788;2023-07-29T13:20:12;3.13;;;1.58;;
47219;SDS011;32961;51.936;4.788;2023-07-29T13:22:40;2.95;;;1.27;;
47219;SDS011;32961;51.936;4.788;2023-07-29T13:25:08;2.20;;;1.30;;
47219;SDS011;32961;51.936;4.788;2023-07-29T13:27:35;3.45;;;0.98;;
47219;SDS011;32961;51.936;4.788;2023-07-29T13:30:04;3.50;;;1.20;;
47219;SDS011;32961;51.936;4.788;2023-07-29T13:32:32;4.53;;;1.67;;
47219;SDS011;32961;51.936;4.788;2023-07-29T13:35:01;4.40;;;1.40;;
47219;SDS011;32961;51.936;4.788;2023-07-29T13:37:29;1.45;;;1.02;;
47219;SDS011;32961;51.936;4.788;2023-07-29T13:39:57;3.75;;;1.35;;
47219;SDS011;32961;51.936;4.788;2023-07-29T13:42:25;2.75;;;1.30;;
47219;SDS011;32961;51.936;4.788;2023-07-29T13:44:53;2.20;;;1.27;;
47219;SDS011;32961;51.936;4.788;2023-07-29T13:47:20;4.03;;;1.30;;
47219;SDS011;32961;51.936;4.788;2023-07-29T13:49:48;2.30;;;1.02;;
47219;SDS011;32961;51.936;4.788;2023-07-29T13:52:17;2.70;;;1.05;;
47219;SDS011;32961;51.936;4.788;2023-07-29T13:54:45;3.22;;;1.20;;
47219;SDS011;32961;51.936;4.788;2023-07-29T13:57:13;3.95;;;1.02;;
47219;SDS011;32961;51.936;4.788;2023-07-29T13:59:41;4.65;;;1.17;;
47219;SDS011;32961;51.936;4.788;2023-07-29T14:02:09;5.22;;;1.50;;
47219;SDS011;32961;51.936;4.788;2023-07-29T14:04:37;2.08;;;1.08;;
47219;SDS011;32961;51.936;4.788;2023-07-29T14:07:04;3.17;;;0.98;;
47219;SDS011;32961;51.936;4.788;2023-07-29T14:09:34;1.40;;;1.10;;
47219;SDS011;32961;51.936;4.788;2023-07-29T14:12:04;3.00;;;0.90;;
47219;SDS011;32961;51.936;4.788;2023-07-29T14:14:32;2.00;;;0.95;;
47219;SDS011;32961;51.936;4.788;2023-07-29T14:17:00;3.40;;;1.02;;
47219;SDS011;32961;51.936;4.788;2023-07-29T14:19:28;2.08;;;1.08;;
47219;SDS011;32961;51.936;4.788;2023-07-29T14:21:56;2.90;;;0.88;;
47219;SDS011;32961;51.936;4.788;2023-07-29T14:24:23;1.63;;;0.95;;
47219;SDS011;32961;51.936;4.788;2023-07-29T14:26:53;1.27;;;0.90;;
47219;SDS011;32961;51.936;4.788;2023-07-29T14:29:20;1.48;;;0.88;;
47219;SDS011;32961;51.936;4.788;2023-07-29T14:31:48;1.45;;;1.00;;
47219;SDS011;32961;51.936;4.788;2023-07-29T14:34:16;4.35;;;1.02;;
47219;SDS011;32961;51.936;4.788;2023-07-29T14:36:44;4.53;;;1.20;;
47219;SDS011;32961;51.936;4.788;2023-07-29T14:39:12;3.22;;;1.20;;
47219;SDS011;32961;51.936;4.788;2023-07-29T14:41:40;1.30;;;0.88;;
47219;SDS011;32961;51.936;4.788;2023-07-29T14:44:09;1.95;;;1.10;;
47219;SDS011;32961;51.936;4.788;2023-07-29T14:46:37;3.50;;;1.23;;
47219;SDS011;32961;51.936;4.788;2023-07-29T14:49:05;4.10;;;1.00;;
47219;SDS011;32961;51.936;4.788;2023-07-29T14:51:33;4.97;;;1.30;;
47219;SDS011;32961;51.936;4.788;2023-07-29T14:54:02;2.85;;;1.13;;
47219;SDS011;32961;51.936;4.788;2023-07-29T14:56:30;3.58;;;1.10;;
47219;SDS011;32961;51.936;4.788;2023-07-29T14:58:57;4.40;;;1.15;;
47219;SDS011;32961;51.936;4.788;2023-07-29T15:01:27;1.85;;;1.10;;